createdAt,value
2023-07-04T00:02:25.831Z,98678.71
2023-07-04T00:07:29.724Z,98676.73
2023-07-04T00:12:32.814Z,98679.74
2023-07-04T00:17:36.038Z,98673.83
2023-07-04T00:22:40.163Z,98672.34
2023-07-04T00:27:43.361Z,98676.41
2023-07-04T00:32:47.661Z,98677.44
2023-07-04T00:37:53.109Z,98675.77
2023-07-04T00:43:04.430Z,98669.32
2023-07-04T00:48:08.407Z,98668.33
2023-07-04T00:53:14.067Z,98672.17
2023-07-04T01:16:48.204Z,98671.46
2023-07-04T01:21:56.001Z,98668.98
2023-07-04T01:27:00.534Z,98667.84
2023-07-04T01:32:05.433Z,98664.22
2023-07-04T01:37:10.622Z,98666.12
2023-07-04T01:42:13.757Z,98673.70
2023-07-04T01:47:19.870Z,98681.95
2023-07-04T01:52:28.154Z,98685.84
2023-07-04T01:57:31.702Z,98689.38
2023-07-04T02:02:35.015Z,98678.89
2023-07-04T02:07:38.366Z,98681.58
2023-07-04T02:12:41.793Z,98686.14
2023-07-04T02:17:45.500Z,98681.78
2023-07-04T02:22:54.053Z,98677.04
2023-07-04T02:27:58.498Z,98680.16
2023-07-04T02:33:03.305Z,98689.77
2023-07-04T02:38:06.611Z,98686.98
2023-07-04T02:43:09.859Z,98691.69
2023-07-04T02:48:14.215Z,98693.17
2023-07-04T02:53:22.561Z,98697.10
2023-07-04T02:58:26.052Z,98688.98
2023-07-04T03:03:29.578Z,98679.95
2023-07-04T03:13:19.444Z,98679.95
2023-07-04T03:18:23.787Z,98683.33
2023-07-04T03:23:27.912Z,98682.65
2023-07-04T03:28:32.012Z,98685.42
2023-07-04T03:33:35.830Z,98696.06
2023-07-04T03:38:42.333Z,98702.46
2023-07-04T03:43:50.193Z,98704.02
2023-07-04T03:48:53.696Z,98702.58
2023-07-04T03:53:57.242Z,98707.81
2023-07-04T03:59:00.673Z,98714.69
2023-07-04T04:04:04.230Z,98714.85
2023-07-04T04:09:07.738Z,98718.71
2023-07-04T04:14:11.499Z,98720.04
2023-07-04T04:19:15.020Z,98724.46
2023-07-04T04:24:18.423Z,98732.85
2023-07-04T04:29:23.516Z,98733.98
2023-07-04T04:34:27.661Z,98741.16
2023-07-04T04:39:30.834Z,98743.44
2023-07-04T04:44:34.070Z,98745.83
2023-07-04T04:49:37.228Z,98749.52
2023-07-04T04:54:41.265Z,98754.97
2023-07-04T04:59:44.664Z,98752.55
2023-07-04T05:04:48.283Z,98755.72
2023-07-04T05:09:55.543Z,98757.36
2023-07-04T05:14:58.752Z,98761.10
2023-07-04T05:20:25.889Z,98765.02
2023-07-04T05:25:29.284Z,98773.28
2023-07-04T05:30:32.557Z,98780.58
2023-07-04T05:35:35.753Z,98779.08
2023-07-04T05:40:42.395Z,98780.09
2023-07-04T05:45:53.279Z,98780.55
2023-07-04T05:51:01.748Z,98777.80
2023-07-04T05:56:12.262Z,98788.05
2023-07-04T06:01:20.697Z,98782.20
2023-07-04T06:06:36.333Z,98784.21
2023-07-04T06:11:44.933Z,98786.38
2023-07-04T06:16:48.668Z,98788.58
2023-07-04T06:21:52.213Z,98793.77
2023-07-04T06:26:55.263Z,98794.63
2023-07-04T06:31:58.846Z,98799.86
2023-07-04T06:37:02.497Z,98800.23
2023-07-04T06:42:06.405Z,98804.23
2023-07-04T06:47:11.560Z,98804.52
2023-07-04T06:52:15.368Z,98806.05
2023-07-04T06:57:20.373Z,98811.70
2023-07-04T07:02:24.956Z,98818.52
2023-07-04T07:07:28.136Z,98819.72
2023-07-04T07:12:32.972Z,98816.41
2023-07-04T07:17:38.436Z,98822.75
2023-07-04T07:22:42.207Z,98827.77
2023-07-04T07:27:45.643Z,98828.31
2023-07-04T07:32:49.064Z,98825.48
2023-07-04T07:37:52.302Z,98828.42
2023-07-04T07:42:55.914Z,98837.08
2023-07-04T07:47:59.144Z,98832.73
2023-07-04T07:53:03.828Z,98831.52
2023-07-04T07:58:07.120Z,98830.61
2023-07-04T08:15:14.857Z,98823.97
2023-07-04T08:20:18.418Z,98822.79
2023-07-04T08:25:21.611Z,98824.26
2023-07-04T08:30:24.838Z,98820.61
2023-07-04T08:35:34.963Z,98813.37
2023-07-04T08:40:43.451Z,98813.44
2023-07-04T08:45:47.442Z,98815.95
2023-07-04T08:50:52.922Z,98816.67
2023-07-04T08:56:10.287Z,98817.67
2023-07-04T09:01:23.183Z,98815.35
2023-07-04T09:06:46.908Z,98817.30
2023-07-04T09:11:50.993Z,98812.29
2023-07-04T09:16:57.706Z,98810.23
2023-07-04T09:22:06.646Z,98807.39
2023-07-04T09:27:14.027Z,98810.57
2023-07-04T09:32:17.497Z,98817.14
2023-07-04T09:37:24.332Z,98813.82
2023-07-04T09:42:48.804Z,98809.09
2023-07-04T09:47:53.242Z,98806.65
2023-07-04T09:53:19.754Z,98810.01
2023-07-04T09:58:25.337Z,98803.70
2023-07-04T10:03:29.082Z,98803.62
2023-07-04T10:08:37.688Z,98804.55
2023-07-04T10:13:40.967Z,98807.87
2023-07-04T10:18:44.136Z,98808.08
2023-07-04T10:23:47.503Z,98801.05
2023-07-04T10:28:51.445Z,98805.52
2023-07-04T10:34:02.601Z,98808.09
2023-07-04T10:39:11.265Z,98807.61
2023-07-04T10:44:20.380Z,98810.92
2023-07-04T10:49:27.763Z,98813.52
2023-07-04T10:54:30.985Z,98813.66
2023-07-04T10:59:38.368Z,98810.59
2023-07-04T11:04:42.792Z,98808.67
2023-07-04T11:09:47.809Z,98805.49
2023-07-04T11:14:51.187Z,98807.43
2023-07-04T11:20:12.926Z,98801.45
2023-07-04T11:25:28.119Z,98800.63
2023-07-04T11:30:35.969Z,98795.44
2023-07-04T11:35:40.953Z,98790.81
2023-07-04T11:40:56.795Z,98787.92
2023-07-04T11:46:02.228Z,98783.98
2023-07-04T11:51:08.209Z,98791.23
2023-07-04T11:56:25.539Z,98796.42
2023-07-04T12:01:58.595Z,98798.08
2023-07-04T12:07:28.775Z,98793.70
2023-07-04T12:12:34.445Z,98798.61
2023-07-04T12:17:40.502Z,98798.66
2023-07-04T12:22:55.047Z,98789.77
2023-07-04T12:30:02.418Z,98792.88
2023-07-04T12:40:05.694Z,98782.86
2023-07-04T12:45:17.257Z,98777.52
2023-07-04T12:50:21.447Z,98773.15
2023-07-04T12:55:34.821Z,98769.34
2023-07-04T13:00:45.262Z,98774.33
2023-07-04T13:05:53.500Z,98772.32
2023-07-04T13:11:01.454Z,98770.30
2023-07-04T13:16:30.500Z,98769.34
2023-07-04T13:21:37.543Z,98770.52
2023-07-04T13:26:43.013Z,98769.77
2023-07-04T13:36:57.187Z,98761.56
2023-07-04T13:42:01.236Z,98757.02
2023-07-04T13:47:05.289Z,98751.98
2023-07-04T13:52:08.936Z,98742.66
2023-07-04T13:57:12.220Z,98741.46
2023-07-04T14:07:21.831Z,98738.92
2023-07-04T14:12:25.028Z,98729.98
2023-07-04T14:17:31.710Z,98728.91
2023-07-04T14:22:39.176Z,98732.83
2023-07-04T14:27:42.364Z,98731.17
2023-07-04T14:32:45.501Z,98729.90
2023-07-04T14:37:48.721Z,98728.60
2023-07-04T14:42:52.178Z,98725.66
2023-07-04T14:47:55.946Z,98719.98
2023-07-04T14:52:59.098Z,98725.10
2023-07-04T14:58:02.962Z,98725.48
2023-07-04T15:03:06.330Z,98717.47
2023-07-04T15:08:16.582Z,98721.36
2023-07-04T15:13:20.928Z,98725.04
2023-07-04T15:18:26.170Z,98720.58
2023-07-04T15:23:30.016Z,98720.05
2023-07-04T15:28:33.981Z,98727.27
2023-07-04T15:33:37.714Z,98722.94
2023-07-04T15:38:40.975Z,98721.75
2023-07-04T15:43:44.235Z,98725.27
2023-07-04T15:48:47.923Z,98724.41
2023-07-04T15:53:51.629Z,98718.79
2023-07-04T15:58:55.000Z,98718.73
2023-07-04T16:04:01.502Z,98715.33
2023-07-04T16:09:05.441Z,98715.73
2023-07-04T16:14:08.908Z,98715.58
2023-07-04T16:19:12.166Z,98716.82
2023-07-04T16:24:15.430Z,98721.09
2023-07-04T16:29:20.625Z,98722.83
2023-07-04T16:34:23.943Z,98723.67
2023-07-04T16:39:27.489Z,98724.11
2023-07-04T16:44:34.545Z,98724.95
2023-07-04T16:49:37.958Z,98726.35
2023-07-04T16:54:41.216Z,98724.52
2023-07-04T16:59:49.021Z,98725.93
2023-07-04T17:04:52.245Z,98727.44
2023-07-04T17:09:55.777Z,98725.02
2023-07-04T17:14:59.363Z,98726.70
2023-07-04T17:20:07.616Z,98723.52
2023-07-04T17:25:13.761Z,98723.88
2023-07-04T17:30:18.206Z,98728.67
2023-07-04T17:35:21.357Z,98730.78
2023-07-04T17:40:24.837Z,98724.09
2023-07-04T17:45:28.451Z,98725.52
2023-07-04T17:50:31.896Z,98727.05
2023-07-04T17:55:35.323Z,98728.11
2023-07-04T18:00:38.678Z,98729.86
2023-07-04T18:05:42.099Z,98727.18
2023-07-04T18:10:46.711Z,98730.93
2023-07-04T18:15:51.709Z,98735.98
2023-07-04T18:21:15.550Z,98741.01
2023-07-04T18:26:34.291Z,98742.00
2023-07-04T18:31:38.116Z,98751.52
2023-07-04T18:36:41.726Z,98752.70
2023-07-04T18:41:46.327Z,98758.33
2023-07-04T18:46:49.685Z,98767.42
2023-07-04T18:52:17.488Z,98771.98
2023-07-04T18:57:22.456Z,98781.67
2023-07-04T19:02:25.588Z,98786.88
2023-07-04T19:07:28.728Z,98793.17
2023-07-04T19:12:31.795Z,98804.08
2023-07-04T19:17:36.230Z,98803.98
2023-07-04T19:22:39.722Z,98816.39
2023-07-04T19:27:43.021Z,98824.11
2023-07-04T19:32:46.371Z,98828.57
2023-07-04T19:37:49.674Z,98831.55
2023-07-04T19:42:52.926Z,98837.10
2023-07-04T19:47:56.162Z,98839.14
2023-07-04T19:52:59.431Z,98840.97
2023-07-04T19:58:02.763Z,98846.92
2023-07-04T20:03:06.092Z,98844.40
2023-07-04T20:08:10.522Z,98844.60
2023-07-04T20:13:13.808Z,98840.33
2023-07-04T20:18:17.680Z,98844.26
2023-07-04T20:23:21.146Z,98850.27
2023-07-04T20:28:25.620Z,98851.26
2023-07-04T20:33:31.392Z,98852.39
2023-07-04T20:38:35.392Z,98857.36
2023-07-04T20:43:38.747Z,98860.34
2023-07-04T20:48:43.160Z,98866.13
2023-07-04T21:13:18.876Z,98885.27
2023-07-04T21:18:27.363Z,98888.27
2023-07-04T21:23:30.479Z,98889.45
2023-07-04T21:28:33.844Z,98890.58
2023-07-04T21:33:38.877Z,98894.79
2023-07-04T21:38:44.488Z,98898.27
2023-07-04T21:43:47.754Z,98897.76
2023-07-04T21:48:51.160Z,98897.77
2023-07-04T21:53:54.425Z,98899.92
2023-07-04T21:58:59.654Z,98909.80
2023-07-04T22:04:02.729Z,98913.81
2023-07-04T22:09:09.651Z,98915.27
2023-07-04T22:14:23.418Z,98924.50
2023-07-04T22:19:36.660Z,98926.76
2023-07-04T22:24:39.780Z,98924.51
2023-07-04T22:29:43.029Z,98926.11
2023-07-04T22:34:46.149Z,98917.04
2023-07-04T22:39:49.193Z,98908.92
2023-07-04T22:44:52.435Z,98905.41
2023-07-04T22:50:08.428Z,98909.30
2023-07-04T22:55:13.761Z,98911.13
2023-07-04T23:00:17.969Z,98915.48
2023-07-04T23:05:21.249Z,98919.14
2023-07-04T23:13:16.561Z,98918.80
2023-07-04T23:18:19.782Z,98925.88
2023-07-04T23:23:23.194Z,98926.29
2023-07-04T23:28:31.211Z,98926.98
2023-07-04T23:33:40.398Z,98928.24
2023-07-04T23:38:43.488Z,98930.02
2023-07-04T23:43:47.316Z,98929.41
2023-07-04T23:48:50.678Z,98927.91
2023-07-04T23:59:45.137Z,98928.55
